Flight Track Log - Related Links

Times and Time Zones

All times are in EDT time to prevent confusion due to time zone crossing. See the FDX3014 flight status page for this flight to view local times or setup timezone preferences in your user account.

Time Position Orientation Groundspeed Altitude Reporting Facility
EDT Latitude Longitude Course Direction KTS MPH feet Rate Location/Type
Wed 09:24:42 AM 33.9333 -118.4500 225° Southwest 179 206 2,300  Level Southern California TRACON
Wed 09:26:04 AM 33.8764 -118.5181 184° South 229 264 4,800 2,408 Climbing Los Angeles Center
Wed 09:27:04 AM 33.7883 -118.5256 176° South 243 280 8,000 3,000 Climbing Los Angeles Center
Wed 09:28:04 AM 33.7114 -118.5183 113° Southeast 280 322 10,800 2,600 Climbing Los Angeles Center
Wed 09:29:04 AM 33.6778 -118.4228 72° East 261 300 13,200 1,850 Climbing Los Angeles Center
Wed 09:30:04 AM 33.7092 -118.3036 70° East 269 310 14,500 1,800 Climbing Los Angeles Center
Wed 09:31:04 AM 33.7492 -118.1697 64° Northeast 345 397 16,800 2,300 Climbing Los Angeles Center
Wed 09:32:04 AM 33.8033 -118.0361 36° Northeast 412 474 19,100 2,150 Climbing Los Angeles Center
Wed 09:33:04 AM 33.9050 -117.9458 36° Northeast 412 474 21,100 1,900 Climbing Los Angeles Center
Wed 09:34:04 AM 34.0128 -117.8503 40° Northeast 436 502 22,900 1,500 Climbing Los Angeles Center
Wed 09:35:04 AM 34.1208 -117.7397 48° Northeast 464 534 24,100 1,450 Climbing Los Angeles Center
Wed 09:36:04 AM 34.2100 -117.6183 44° Northeast 477 549 25,800 1,800 Climbing Los Angeles Center
Wed 09:37:04 AM 34.3264 -117.4819 49° Northeast 505 581 27,700 1,700 Climbing Los Angeles Center
Wed 09:38:04 AM 34.4111 -117.3625 46° Northeast 517 595 29,200 1,500 Climbing Los Angeles Center
Wed 09:39:04 AM 34.5125 -117.2356 48° Northeast 517 595 30,700 900 Climbing Los Angeles Center
Wed 09:40:04 AM 34.6117 -117.1031 47° Northeast 517 595 31,000 150 Climbing Los Angeles Center
Wed 09:41:04 AM 34.7108 -116.9753 46° Northeast 517 595 31,000  Level Los Angeles Center
Wed 09:42:04 AM 34.8117 -116.8475 47° Northeast 517 595 31,000  Level Los Angeles Center
Wed 09:43:04 AM 34.9128 -116.7164 48° Northeast 517 595 31,000  Level Los Angeles Center
Wed 09:44:04 AM 35.0092 -116.5853 46° Northeast 517 595 31,000  Level Los Angeles Center
Wed 09:45:04 AM 35.1097 -116.4589 48° Northeast 517 595 31,000  Level Los Angeles Center
Wed 09:46:04 AM 35.2042 -116.3297 46° Northeast 512 589 31,000  Level Los Angeles Center
Wed 09:47:04 AM 35.3044 -116.2028 48° Northeast 512 589 31,000  Level Los Angeles Center
Wed 09:48:04 AM 35.4003 -116.0728 48° Northeast 512 589 31,000  Level Los Angeles Center
Wed 09:49:04 AM 35.4942 -115.9428 47° Northeast 512 589 31,000  Level Los Angeles Center
Wed 09:50:04 AM 35.5919 -115.8147 47° Northeast 512 589 31,000  Level Los Angeles Center
Wed 09:51:04 AM 35.6875 -115.6867 46° Northeast 512 589 31,000  Level Los Angeles Center
Wed 09:52:04 AM 35.7831 -115.5631 49° Northeast 503 579 31,000  Level Los Angeles Center
Wed 09:53:04 AM 35.8742 -115.4319 47° Northeast 503 579 31,000  Level Los Angeles Center
Wed 09:54:04 AM 35.9694 -115.3078 51° Northeast 498 573 31,000  Level Los Angeles Center
Wed 09:55:04 AM 36.0581 -115.1733 62° Northeast 498 573 31,000  Level Los Angeles Center
Wed 09:56:04 AM 36.1236 -115.0208 70° East 498 573 31,000  Level Los Angeles Center
Wed 09:57:04 AM 36.1719 -114.8581 69° East 498 573 31,000  Level Los Angeles Center
Wed 09:58:04 AM 36.2225 -114.6953 69° East 498 573 31,000  Level Los Angeles Center
Wed 09:59:04 AM 36.2725 -114.5294 70° East 503 579 31,000  Level Los Angeles Center
Wed 10:00:04 AM 36.3203 -114.3636 68° East 503 579 31,000  Level Los Angeles Center
Wed 10:01:04 AM 36.3722 -114.2000 70° East 503 579 31,000  Level Los Angeles Center
Wed 10:02:04 AM 36.4194 -114.0361 70° East 503 579 31,000  Level Los Angeles Center
Wed 10:03:04 AM 36.4667 -113.8750 70° East 503 579 31,000  Level Los Angeles Center
Wed 10:04:04 AM 36.5156 -113.7081 70° East 503 579 31,000  Level Los Angeles Center
Wed 10:05:04 AM 36.5644 -113.5439 71° East 503 579 31,000  Level Los Angeles Center
Wed 10:06:04 AM 36.6108 -113.3794 71° East 503 579 31,000  Level Los Angeles Center
Wed 10:07:04 AM 36.6572 -113.2147 70° East 503 579 31,000  Level Los Angeles Center
Wed 10:08:04 AM 36.7111 -113.0314 71° East 509 586 31,000  Level Los Angeles Center
Wed 10:09:04 AM 36.7567 -112.8664 70° East 509 586 31,000  Level Los Angeles Center
Wed 10:10:04 AM 36.8044 -112.7011 71° East 509 586 31,000  Level Los Angeles Center
Wed 10:11:04 AM 36.8497 -112.5381 71° East 504 580 31,000  Level Los Angeles Center
Wed 10:13:29 AM 36.9617 -112.1397 71° East 506 582 31,000  Level Denver Center
Wed 10:14:30 AM 37.0086 -111.9717 72° East 506 582 31,000  Level Denver Center
Wed 10:15:32 AM 37.0533 -111.8025 72° East 507 583 31,000  Level Denver Center
Wed 10:16:34 AM 37.0975 -111.6328 73° East 507 583 31,000  Level Denver Center
Wed 10:17:36 AM 37.1389 -111.4642 72° East 504 580 31,000  Level Denver Center
Wed 10:18:38 AM 37.1817 -111.2944 73° East 504 580 31,000  Level Denver Center
Wed 10:19:40 AM 37.2239 -111.1239 72° East 506 582 31,000  Level Denver Center
Wed 10:20:42 AM 37.2669 -110.9533 73° East 506 582 31,000  Level Denver Center
Wed 10:21:44 AM 37.3094 -110.7828 73° East 506 582 31,000  Level Denver Center
Wed 10:22:46 AM 37.3514 -110.6119 73° East 506 582 31,000  Level Denver Center
Wed 10:23:48 AM 37.3933 -110.4414 73° East 505 581 31,000  Level Denver Center
Wed 10:24:50 AM 37.4428 -110.2364 73° East 504 580 31,000  Level Denver Center
Wed 10:25:52 AM 37.4803 -110.0825 73° East 503 579 31,000  Level Denver Center
Wed 10:26:54 AM 37.5258 -109.8961 71° East 500 575 31,000  Level Denver Center
Wed 10:27:56 AM 37.5683 -109.7369 72° East 500 575 31,000  Level Denver Center
Wed 10:28:58 AM 37.6156 -109.5514 72° East 499 574 31,000  Level Denver Center
Wed 10:30:00 AM 37.6558 -109.3936 72° East 494 568 31,000  Level Denver Center
Wed 10:31:15 AM 37.7092 -109.1806 72° East 496 571 31,000  Level Denver Center
Wed 10:32:17 AM 37.7497 -109.0222 73° East 495 570 31,000  Level Denver Center
Wed 10:33:19 AM 37.7947 -108.8386 72° East 491 565 31,000  Level Denver Center
Wed 10:34:22 AM 37.8347 -108.6803 73° East 493 567 31,000  Level Denver Center
Wed 10:35:24 AM 37.8794 -108.4958 73° East 491 565 31,000  Level Denver Center
Wed 10:36:26 AM 37.9172 -108.3406 73° East 487 560 31,000  Level Denver Center
Wed 10:37:29 AM 37.9619 -108.1564 73° East 487 560 31,000  Level Denver Center
Wed 10:38:31 AM 37.9992 -108.0019 72° East 484 557 31,000  Level Denver Center
Wed 10:39:33 AM 38.0456 -107.8208 71° East 484 557 31,000  Level Denver Center
Wed 10:40:36 AM 38.0911 -107.6478 72° East 482 555 31,000  Level Denver Center
Wed 10:41:38 AM 38.1311 -107.4925 72° East 484 557 31,000  Level Denver Center
Wed 10:42:41 AM 38.1764 -107.3114 72° East 483 556 31,000  Level Denver Center
Wed 10:43:43 AM 38.2156 -107.1564 72° East 482 555 31,000  Level Denver Center
Wed 10:44:45 AM 38.2611 -106.9750 72° East 483 556 31,000  Level Denver Center
Wed 10:46:14 AM 38.3227 -106.7270 72° East 486 559 31,000  Level FlightAware ADS-B
Wed 10:46:45 AM 38.3437 -106.6430 73° East 491 565 31,000  Level FlightAware ADS-B
Wed 10:47:15 AM 38.3638 -106.5610 73° East 485 558 31,000  Level FlightAware ADS-B
Wed 10:47:46 AM 38.3843 -106.4770 73° East 483 556 31,000  Level FlightAware ADS-B
Wed 10:48:20 AM 38.4072 -106.3830 73° East 488 562 31,000  Level FlightAware ADS-B
Wed 10:48:52 AM 38.4279 -106.2980 73° East 471 542 31,000  Level FlightAware ADS-B
Wed 10:49:24 AM 38.4494 -106.2100 73° East 480 552 31,000  Level FlightAware ADS-B
Wed 10:49:58 AM 38.4714 -106.1190 73° East 469 540 31,000  Level FlightAware ADS-B
Wed 10:50:29 AM 38.4917 -106.0340 73° East 487 560 31,000  Level FlightAware ADS-B
Wed 10:51:00 AM 38.5123 -105.9500 71° East 481 554 31,000  Level FlightAware ADS-B
Wed 10:51:34 AM 38.5375 -105.8580 71° East 478 550 31,000  Level FlightAware ADS-B
Wed 10:52:05 AM 38.5601 -105.7760 71° East 469 540 31,000  Level FlightAware ADS-B
Wed 10:52:37 AM 38.5828 -105.6920 71° East 471 542 31,000  Level FlightAware ADS-B
Wed 10:53:08 AM 38.6046 -105.6100 71° East 478 550 31,000  Level FlightAware ADS-B
Wed 10:53:38 AM 38.6262 -105.5290 71° East 471 542 31,000  Level FlightAware ADS-B
Wed 10:54:08 AM 38.6479 -105.4470 71° East 472 543 31,000 393 Level FlightAware ADS-B
Wed 10:54:39 AM 38.6696 -105.3650 71° East 472 543 31,400 968 Climbing FlightAware ADS-B
Wed 10:55:10 AM 38.6914 -105.2820 71° East 481 554 32,000 984 Climbing FlightAware ADS-B
Wed 10:55:40 AM 38.7139 -105.1970 71° East 477 549 32,400 885 Climbing FlightAware ADS-B
Wed 10:56:11 AM 38.7363 -105.1120 71° East 498 573 32,900 581 Climbing FlightAware ADS-B
Wed 10:56:42 AM 38.7591 -105.0250 72° East 498 573 33,000 98 Climbing FlightAware ADS-B
Wed 10:57:12 AM 38.7814 -104.9390 72° East 512 589 33,000  Level FlightAware ADS-B
Wed 10:57:42 AM 38.8035 -104.8540 72° East 534 615 33,000  Level FlightAware ADS-B
Wed 10:58:13 AM 38.8262 -104.7660 72° East 506 582 33,000  Level FlightAware ADS-B
Wed 10:58:43 AM 38.8485 -104.6790 72° East 497 572 33,000  Level FlightAware ADS-B
Wed 10:59:15 AM 38.8719 -104.5880 72° East 514 592 33,000  Level FlightAware ADS-B
Wed 10:59:47 AM 38.8947 -104.4990 72° East 503 579 33,000  Level FlightAware ADS-B
Wed 11:00:20 AM 38.9186 -104.4050 72° East 517 595 33,000  Level FlightAware ADS-B
Wed 11:00:51 AM 38.9405 -104.3180 72° East 493 567 33,000  Level FlightAware ADS-B
Wed 11:01:21 AM 38.9627 -104.2310 72° East 516 594 33,000  Level FlightAware ADS-B
Wed 11:01:51 AM 38.9841 -104.1450 72° East 495 570 33,000  Level FlightAware ADS-B
Wed 11:02:21 AM 39.0061 -104.0580 72° East 502 578 33,000  Level FlightAware ADS-B
Wed 11:02:51 AM 39.0276 -103.9720 72° East 516 594 33,000  Level FlightAware ADS-B
Wed 11:03:22 AM 39.0492 -103.8860 72° East 507 583 33,000  Level FlightAware ADS-B
Wed 11:03:52 AM 39.0705 -103.8000 72° East 490 564 33,000  Level FlightAware ADS-B
Wed 11:04:22 AM 39.0924 -103.7110 72° East 524 603 33,000  Level FlightAware ADS-B
Wed 11:04:53 AM 39.1137 -103.6250 72° East 486 559 33,000  Level FlightAware ADS-B
Wed 11:05:24 AM 39.1357 -103.5350 72° East 513 590 33,000  Level FlightAware ADS-B
Wed 11:05:55 AM 39.1577 -103.4450 72° East 500 575 33,000  Level FlightAware ADS-B
Wed 11:06:25 AM 39.1790 -103.3590 73° East 509 586 33,000  Level FlightAware ADS-B
Wed 11:06:55 AM 39.2006 -103.2690 73° East 511 588 33,000  Level FlightAware ADS-B
Wed 11:07:26 AM 39.2222 -103.1790 73° East 504 580 33,000  Level FlightAware ADS-B
Wed 11:07:57 AM 39.2437 -103.0900 73° East 497 572 33,000  Level FlightAware ADS-B
Wed 11:08:27 AM 39.2651 -103.0010 73° East 510 587 33,000  Level FlightAware ADS-B
Wed 11:08:58 AM 39.2864 -102.9120 73° East 517 595 33,000  Level FlightAware ADS-B
Wed 11:09:28 AM 39.3079 -102.8220 73° East 518 596 33,000  Level FlightAware ADS-B
Wed 11:09:59 AM 39.3288 -102.7340 73° East 505 581 33,000  Level FlightAware ADS-B
Wed 11:10:29 AM 39.3501 -102.6440 73° East 507 583 33,000  Level FlightAware ADS-B
Wed 11:11:00 AM 39.3712 -102.5530 73° East 498 573 33,000  Level FlightAware ADS-B
Wed 11:11:30 AM 39.3922 -102.4640 73° East 526 605 33,000  Level FlightAware ADS-B
Wed 11:12:01 AM 39.4129 -102.3760 73° East 492 566 33,000  Level FlightAware ADS-B
Wed 11:12:31 AM 39.4341 -102.2860 73° East 515 593 33,000  Level FlightAware ADS-B
Wed 11:13:01 AM 39.4541 -102.1990 73° East 500 575 33,000  Level FlightAware ADS-B
Wed 11:13:36 AM 39.4736 -102.1140 73° East 243 280 33,000  Level FlightAware ADS-B
Wed 11:14:06 AM 39.4991 -102.0030 72° East 530 610 33,000  Level FlightAware ADS-B
Wed 11:14:39 AM 39.5230 -101.9090 70° East 489 563 33,000  Level FlightAware ADS-B
Wed 11:15:11 AM 39.5489 -101.8160 70° East 501 577 33,000  Level FlightAware ADS-B
Wed 11:15:42 AM 39.5742 -101.7240 71° East 514 592 33,000  Level FlightAware ADS-B
Wed 11:16:13 AM 39.5982 -101.6350 71° East 513 590 33,000  Level FlightAware ADS-B
Wed 11:16:43 AM 39.6219 -101.5460 71° East 503 579 33,000  Level FlightAware ADS-B
Wed 11:17:13 AM 39.6457 -101.4560 71° East 526 605 33,000  Level FlightAware ADS-B
Wed 11:17:45 AM 39.6701 -101.3640 71° East 532 612 33,000  Level FlightAware ADS-B
Wed 11:19:08 AM 39.7328 -101.1269 71° East 516 594 33,000  Level Denver Center
Wed 11:20:10 AM 39.7772 -100.9572 71° East 518 596 33,000  Level Denver Center
Wed 11:21:13 AM 39.8278 -100.7617 71° East 516 594 33,000  Level Denver Center
Wed 11:22:15 AM 39.8711 -100.5925 71° East 516 594 33,000  Level Denver Center
Wed 11:23:18 AM 39.9219 -100.3942 72° East 519 597 33,000  Level Denver Center
Wed 11:24:20 AM 39.9700 -100.2056 72° East 518 596 33,000  Level Denver Center
Wed 11:25:23 AM 40.0136 -100.0306 72° East 512 589 33,000  Level Denver Center
Wed 11:26:25 AM 40.0569 -99.8536 72° East 513 590 33,000  Level Denver Center
Wed 11:27:28 AM 40.1017 -99.6764 72° East 514 592 33,000  Level Denver Center
Wed 11:28:30 AM 40.1447 -99.4981 71° East 516 594 33,000  Level Denver Center
Wed 11:29:18 AM 40.1794 -99.3619 72° East 515 593 33,000  Level Minneapolis Center
Wed 11:30:19 AM 40.2303 -99.1522 73° East 515 593 33,000  Level Minneapolis Center
Wed 11:31:19 AM 40.2706 -98.9764 76° East 504 580 33,000  Level Minneapolis Center
Wed 11:32:19 AM 40.3047 -98.7947 85° East 510 587 33,000  Level Minneapolis Center
Wed 11:33:19 AM 40.3181 -98.6056 79° East 510 587 33,000  Level Minneapolis Center
Wed 11:34:19 AM 40.3456 -98.4200 70° East 515 593 33,000  Level Minneapolis Center
Wed 11:35:19 AM 40.3953 -98.2417 70° East 521 600 33,000  Level Minneapolis Center
Wed 11:36:19 AM 40.4444 -98.0658 71° East 521 600 33,000  Level Minneapolis Center
Wed 11:37:19 AM 40.4911 -97.8919 69° East 516 594 33,000  Level Minneapolis Center
Wed 11:38:19 AM 40.5419 -97.7183 70° East 511 588 33,000  Level Minneapolis Center
Wed 11:39:19 AM 40.5903 -97.5414 70° East 511 588 33,000  Level Minneapolis Center
Wed 11:40:18 AM 40.6383 -97.3644 72° East 511 588 33,000  Level Minneapolis Center
Wed 11:41:19 AM 40.6819 -97.1894 70° East 505 581 33,000  Level Minneapolis Center
Wed 11:42:19 AM 40.7317 -97.0119 70° East 505 581 33,000  Level Minneapolis Center
Wed 11:43:19 AM 40.7789 -96.8367 71° East 511 588 33,000  Level Minneapolis Center
Wed 11:44:19 AM 40.8258 -96.6586 71° East 511 588 33,000  Level Minneapolis Center
Wed 11:45:19 AM 40.8725 -96.4828 70° East 511 588 33,000  Level Minneapolis Center
Wed 11:46:19 AM 40.9167 -96.3203 71° East 511 588 33,000  Level Minneapolis Center
Wed 11:47:18 AM 40.9606 -96.1467 73° East 511 588 33,000  Level Minneapolis Center
Wed 11:48:18 AM 41.0003 -95.9700 75° East 511 588 33,000  Level Minneapolis Center
Wed 11:49:19 AM 41.0375 -95.7903 76° East 505 581 33,000  Level Minneapolis Center
Wed 11:50:19 AM 41.0725 -95.6044 75° East 510 587 33,000  Level Minneapolis Center
Wed 11:51:19 AM 41.1092 -95.4244 76° East 510 587 33,000  Level Minneapolis Center
Wed 11:52:18 AM 41.1436 -95.2411 76° East 510 587 33,000  Level Minneapolis Center
Wed 11:53:19 AM 41.1778 -95.0575 75° East 510 587 33,000  Level Minneapolis Center
Wed 11:54:19 AM 41.2136 -94.8739 76° East 510 587 33,000  Level Minneapolis Center
Wed 11:55:19 AM 41.2492 -94.6900 76° East 510 587 33,000  Level Minneapolis Center
Wed 11:56:19 AM 41.2822 -94.5086 76° East 510 587 33,000  Level Minneapolis Center
Wed 11:57:18 AM 41.3150 -94.3272 77° East 510 587 33,000  Level Minneapolis Center
Wed 11:58:19 AM 41.3497 -94.1317 76° East 503 579 33,000  Level Minneapolis Center
Wed 12:00:29 PM 41.4225 -93.7311 79° East 506 582 33,000  Level Chicago Center
Wed 12:01:29 PM 41.4481 -93.5472 82° East 506 582 33,000  Level Chicago Center
Wed 12:02:29 PM 41.4675 -93.3600 84° East 506 582 33,000  Level Chicago Center
Wed 12:03:29 PM 41.4822 -93.1725 82° East 506 582 33,000  Level Chicago Center
Wed 12:04:29 PM 41.5031 -92.9822 83° East 511 588 33,000  Level Chicago Center
Wed 12:05:29 PM 41.5214 -92.7919 86° East 511 588 33,000  Level Chicago Center
Wed 12:06:29 PM 41.5308 -92.6092 81° East 531 611 33,000  Level Chicago Center
Wed 12:07:29 PM 41.5528 -92.4244 84° East 526 605 33,000  Level Chicago Center
Wed 12:08:29 PM 41.5706 -92.2117 84° East 526 605 33,000  Level Chicago Center
Wed 12:09:29 PM 41.5858 -92.0206 83° East 519 597 33,000  Level Chicago Center
Wed 12:10:29 PM 41.6025 -91.8242 84° East 519 597 33,000  Level Chicago Center
Wed 12:11:29 PM 41.6169 -91.6358 84° East 519 597 33,000  Level Chicago Center
Wed 12:12:29 PM 41.6333 -91.4392 84° East 519 597 33,000  Level Chicago Center
Wed 12:13:29 PM 41.6492 -91.2450 85° East 519 597 33,000  Level Chicago Center
Wed 12:14:29 PM 41.6628 -91.0453 84° East 524 603 33,000  Level Chicago Center
Wed 12:15:29 PM 41.6778 -90.8483 83° East 529 609 33,000  Level Chicago Center
Wed 12:16:29 PM 41.6950 -90.6514 85° East 534 615 33,000  Level Chicago Center
Wed 12:17:29 PM 41.7072 -90.4736 85° East 541 623 33,000  Level Chicago Center
Wed 12:18:29 PM 41.7214 -90.2733 85° East 536 617 33,000  Level Chicago Center
Wed 12:19:29 PM 41.7356 -90.0706 85° East 536 617 33,000  Level Chicago Center
Wed 12:20:29 PM 41.7469 -89.8758 85° East 536 617 33,000  Level Chicago Center
Wed 12:21:29 PM 41.7603 -89.6728 85° East 536 617 33,000  Level Chicago Center
Wed 12:22:29 PM 41.7731 -89.4558 85° East 536 617 33,000  Level Chicago Center
Wed 12:23:29 PM 41.7856 -89.2581 86° East 536 617 33,000  Level Chicago Center
Wed 12:24:29 PM 41.7956 -89.0603 85° East 536 617 33,000  Level Chicago Center
Wed 12:25:29 PM 41.8075 -88.8625 86° East 536 617 33,000  Level Chicago Center
Wed 12:26:29 PM 41.8189 -88.6617 86° East 536 617 33,000  Level Chicago Center
Wed 12:27:29 PM 41.8300 -88.4608 86° East 536 617 33,000  Level Chicago Center
Wed 12:28:29 PM 41.8408 -88.2603 86° East 536 617 33,000  Level Chicago Center
Wed 12:29:29 PM 41.8514 -88.0619 87° East 536 617 33,000  Level Chicago Center
Wed 12:30:29 PM 41.8592 -87.8583 85° East 536 617 33,000  Level Chicago Center
Wed 12:31:29 PM 41.8711 -87.6572 87° East 536 617 33,000  Level Chicago Center
Wed 12:32:29 PM 41.8783 -87.4536 86° East 536 617 33,000  Level Chicago Center
Wed 12:33:29 PM 41.8875 -87.2581 87° East 536 617 33,000  Level Chicago Center
Wed 12:34:29 PM 41.8961 -87.0542 87° East 542 624 33,000  Level Chicago Center
Wed 12:35:29 PM 41.9044 -86.8528 87° East 542 624 33,000  Level Chicago Center
Wed 12:36:29 PM 41.9122 -86.6461 87° East 542 624 33,000  Level Chicago Center
Wed 12:37:29 PM 41.9197 -86.4447 87° East 542 624 33,000  Level Chicago Center
Wed 12:38:29 PM 41.9269 -86.2406 88° East 542 624 33,000  Level Chicago Center
Wed 12:39:29 PM 41.9317 -86.0367 88° East 542 624 33,000  Level Chicago Center
Wed 12:40:29 PM 41.9367 -85.8550 88° East 549 632 33,000  Level Chicago Center
Wed 12:41:29 PM 41.9425 -85.6478 88° East 549 632 33,000  Level Chicago Center
Wed 12:43:04 PM 41.9517 -85.3247 88° East 576 663 33,000  Level Cleveland Center
Wed 12:44:04 PM 41.9558 -85.1156 92° East 564 649 33,000  Level Cleveland Center
Wed 12:45:04 PM 41.9497 -84.8944 90° East 551 634 33,000  Level Cleveland Center
Wed 12:46:04 PM 41.9489 -84.6906 91° East 551 634 33,000  Level Cleveland Center
Wed 12:47:04 PM 41.9456 -84.4864 90° East 546 628 33,000  Level Cleveland Center
Wed 12:48:03 PM 41.9453 -84.3047 91° East 546 628 33,000  Level Cleveland Center
Wed 12:49:03 PM 41.9433 -84.1064 91° East 541 623 33,000  Level Cleveland Center
Wed 12:50:03 PM 41.9411 -83.9025 92° East 536 617 33,000  Level Cleveland Center
Wed 12:51:03 PM 41.9364 -83.6983 91° East 542 624 33,000  Level Cleveland Center
Wed 12:52:03 PM 41.9333 -83.5000 90° East 536 617 33,000  Level Cleveland Center
Wed 12:53:04 PM 41.9319 -83.2961 91° East 536 617 33,000  Level Cleveland Center
Wed 12:54:04 PM 41.9303 -83.0953 90° East 536 617 33,000  Level Cleveland Center
Wed 12:55:03 PM 41.9303 -82.8969 91° East 536 617 33,000  Level Cleveland Center
Wed 12:56:04 PM 41.9281 -82.6958 91° East 536 617 33,000  Level Cleveland Center
Wed 12:57:04 PM 41.9253 -82.4978 91° East 530 610 33,000  Level Cleveland Center
Wed 12:58:03 PM 41.9222 -82.2994 90° East 530 610 33,000  Level Cleveland Center
Wed 12:59:04 PM 41.9208 -82.0817 91° East 530 610 33,000  Level Cleveland Center
Wed 01:00:03 PM 41.9192 -81.8836 95° East 530 610 33,000  Level Cleveland Center
Wed 01:01:03 PM 41.9067 -81.6881 97° East 535 616 33,000  Level Cleveland Center
Wed 01:02:04 PM 41.8875 -81.4925 98° East 535 616 33,000  Level Cleveland Center
Wed 01:03:03 PM 41.8681 -81.2969 97° East 528 608 33,000  Level Cleveland Center
Wed 01:04:03 PM 41.8525 -81.1239 97° East 522 601 33,000  Level Cleveland Center
Wed 01:05:03 PM 41.8344 -80.9314 97° East 522 601 33,000  Level Cleveland Center
Wed 01:06:03 PM 41.8161 -80.7419 97° East 522 601 33,000  Level Cleveland Center
Wed 01:07:03 PM 41.7975 -80.5497 98° East 522 601 33,000  Level Cleveland Center
Wed 01:08:03 PM 41.7783 -80.3603 98° East 517 595 33,000  Level Cleveland Center
Wed 01:09:03 PM 41.7569 -80.1572 98° East 517 595 33,000  Level Cleveland Center
Wed 01:10:03 PM 41.7375 -79.9739 97° East 507 583 33,000  Level Cleveland Center
Wed 01:11:03 PM 41.7197 -79.7875 98° East 501 577 33,000  Level Cleveland Center
Wed 01:12:03 PM 41.7017 -79.6236 98° East 501 577 33,000  Level Cleveland Center
Wed 01:13:03 PM 41.6833 -79.4433 99° East 501 577 33,000  Level Cleveland Center
Wed 01:14:04 PM 41.6625 -79.2603 99° East 501 577 33,000  Level Cleveland Center
Wed 01:15:03 PM 41.6417 -79.0772 98° East 501 577 33,000  Level Cleveland Center
Wed 01:16:03 PM 41.6225 -78.8944 99° East 501 577 33,000  Level Cleveland Center
Wed 01:17:04 PM 41.6008 -78.7144 99° East 501 577 33,000  Level Cleveland Center
Wed 01:19:32 PM 41.5494 -78.2667 100° East 493 567 33,000  Level New York Center
Wed 01:20:32 PM 41.5256 -78.0811 100° East 493 567 33,000 -248 Level New York Center
Wed 01:21:33 PM 41.5003 -77.8817 101° East 498 573 32,500 -793 Descending New York Center
Wed 01:22:33 PM 41.4733 -77.7014 100° East 498 573 31,400 -763 Descending New York Center
Wed 01:23:31 PM 41.4486 -77.5161 102° East 493 567 31,000 -203 Descending New York Center
Wed 01:24:31 PM 41.4225 -77.3503 101° East 493 567 31,000 -148 Level New York Center
Wed 01:25:33 PM 41.3969 -77.1708 101° East 493 567 30,700 -634 Descending New York Center
Wed 01:26:34 PM 41.3692 -76.9828 102° East 498 573 29,700 -1,160 Descending New York Center
Wed 01:27:32 PM 41.3411 -76.8006 109° East 498 573 28,400 -1,962 Descending New York Center
Wed 01:29:10 PM 41.2604 -76.4827 110° East 496 571 24,600 -2,279 Descending FlightAware ADS-B
Wed 01:29:41 PM 41.2374 -76.3971 110° East 475 547 23,500 -2,095 Descending FlightAware ADS-B
Wed 01:30:13 PM 41.2140 -76.3114 110° East 454 522 22,400 -2,091 Descending FlightAware ADS-B
Wed 01:30:47 PM 41.1905 -76.2242 110° East 444 511 21,200 -2,055 Descending FlightAware ADS-B
Wed 01:31:26 PM 41.1630 -76.1241 110° East 437 503 19,900 -2,000 Descending FlightAware ADS-B
Wed 01:31:59 PM 41.1395 -76.0378 110° East 438 504 18,800 -1,875 Descending FlightAware ADS-B
Wed 01:32:30 PM 41.1188 -75.9629 110° East 429 494 17,900 -1,754 Descending FlightAware ADS-B
Wed 01:33:04 PM 41.0957 -75.8792 110° East 422 486 16,900 -1,714 Descending FlightAware ADS-B
Wed 01:33:40 PM 41.0726 -75.7947 110° East 406 467 15,900 -1,714 Descending FlightAware ADS-B
Wed 01:34:14 PM 41.0507 -75.7159 109° East 404 465 14,900 -1,781 Descending FlightAware ADS-B
Wed 01:34:44 PM 41.0326 -75.6460 104° East 402 463 14,000 -1,524 Descending FlightAware ADS-B
Wed 01:35:17 PM 41.0178 -75.5696 110° East 374 430 13,300 -831 Descending FlightAware ADS-B
Wed 01:35:49 PM 40.9998 -75.5044 114° Southeast 359 413 13,100 -1,000 Descending FlightAware ADS-B
Wed 01:36:59 PM 40.9522 -75.3645 111° Southeast 354 407 11,600 -1,252 Descending FlightAware ADS-B
Wed 01:37:44 PM 40.9280 -75.2809 110° East 328 377 10,700 -1,120 Descending FlightAware ADS-B
Wed 01:38:14 PM 40.9135 -75.2268 111° Southeast 311 358 10,200 -1,435 Descending FlightAware ADS-B
Wed 01:38:30 PM 40.9053 -75.1978 111° Southeast 309 356 9,600 -2,000 Descending FlightAware ADS-B
Wed 01:38:53 PM 40.8944 -75.1597 110° East 298 343 8,900 -1,750 Descending FlightAware ADS-B
Wed 01:39:18 PM 40.8820 -75.1158 111° Southeast 303 349 8,200 -1,773 Descending FlightAware ADS-B
Wed 01:39:37 PM 40.8729 -75.0838 110° East 301 346 7,600 -1,421 Descending FlightAware ADS-B
Wed 01:39:56 PM 40.8635 -75.0500 110° East 302 348 7,300 -615 Descending FlightAware ADS-B
Wed 01:40:16 PM 40.8542 -75.0165 111° Southeast 300 345 7,200 -162 Descending FlightAware ADS-B
Wed 01:40:33 PM 40.8458 -74.9869 106° East 311 358 7,200 -324 Level FlightAware ADS-B
Wed 01:40:53 PM 40.8381 -74.9521 85° East 292 336 7,000 -973 Descending FlightAware ADS-B
Wed 01:41:10 PM 40.8403 -74.9213 80° East 291 335 6,600 -1,167 Descending FlightAware ADS-B
Wed 01:41:29 PM 40.8446 -74.8881 80° East 288 331 6,300 -600 Descending FlightAware ADS-B
Wed 01:41:50 PM 40.8492 -74.8536 79° East 290 334 6,200 -150 Descending FlightAware ADS-B
Wed 01:42:09 PM 40.8539 -74.8203 79° East 284 327 6,200  Level FlightAware ADS-B
Wed 01:42:25 PM 40.8578 -74.7930 80° East 289 333 6,200  Level FlightAware ADS-B
Wed 01:42:41 PM 40.8616 -74.7657 79° East 282 325 6,200  Level FlightAware ADS-B
Wed 01:43:32 PM 40.8734 -74.6813 77° East 277 319 6,200  Level FlightAware ADS-B
Wed 01:43:47 PM 40.8781 -74.6550 54° Northeast 288 331 6,200  Level FlightAware ADS-B
Wed 01:44:03 PM 40.8904 -74.6324 40° Northeast 285 328 6,200  Level FlightAware ADS-B
Wed 01:44:25 PM 40.9133 -74.6069 40° Northeast 285 328 6,200 -143 Level FlightAware ADS-B
Wed 01:44:45 PM 40.9330 -74.5853 38° Northeast 282 325 6,100 -545 Descending FlightAware ADS-B
Wed 01:45:20 PM 40.9667 -74.5500 49° Northeast 264 304 5,700 -674 Descending New York TRACON
Wed 01:46:14 PM 41.0000 -74.5000 75° East 243 280 5,100 -316 Descending New York TRACON
Wed 01:47:14 PM 41.0167 -74.4167 90° East 234 269 5,100  Level New York TRACON
Wed 01:48:14 PM 41.0167 -74.3333 105° East 236 272 5,100 -143 Level New York TRACON
Wed 01:49:20 PM 41.0000 -74.2500 143° Southeast 234 269 4,800 -500 Descending New York TRACON
Wed 01:50:14 PM 40.9500 -74.2000 131° Southeast 216 249 4,100 -368 Descending New York TRACON
Wed 01:51:14 PM 40.9167 -74.1500 108° East 181 208 4,100 -450 Level New York TRACON
Wed 01:52:14 PM 40.9000 -74.0833 131° Southeast 179 206 3,200 -500 Descending New York TRACON
Wed 01:53:14 PM 40.8667 -74.0333 217° Southwest 183 211 3,100 -100 Descending New York TRACON
Wed 01:54:14 PM 40.8333 -74.0667 207° Southwest 181 208 3,000 -524 Descending New York TRACON
Wed 01:55:20 PM 40.7833 -74.1000 217° Southwest 173 199 2,000 -857 Descending New York TRACON
Wed 01:56:20 PM 40.7500 -74.1333 201° Southwest 164 189 1,200 -789 Descending New York TRACON
Wed 01:57:14 PM 40.7167 -74.1500 201° Southwest 133 153 500 -778 Descending New York TRACON
Wed 02:04:32 PM 40.6833 -74.1667 351° North  Level FlightAware Approximate
Wed 02:05:32 PM 40.8192 -74.1963 171° South  Level Estimated
Wed 02:06:32 PM 40.6833 -74.1667 171° South  Level FlightAware Approximate

Login

Don't have an account? Register now (free) for customized features, flight alerts, and more!